sensor_id;sensor_type;location;lat;lon;timestamp;pressure;altitude;pressure_sealevel;temperature;humidity
16978;BME280;8605;52.548;4.918;2024-02-16T00:00:02;100913.28;;;10.63;93.25
16978;BME280;8605;52.548;4.918;2024-02-16T00:02:30;100915.28;;;10.61;93.51
16978;BME280;8605;52.548;4.918;2024-02-16T00:05:00;100907.06;;;10.63;93.36
16978;BME280;8605;52.548;4.918;2024-02-16T00:07:28;100919.13;;;10.59;93.54
16978;BME280;8605;52.548;4.918;2024-02-16T00:09:56;100917.91;;;10.53;94.06
16978;BME280;8605;52.548;4.918;2024-02-16T00:12:24;100918.22;;;10.50;94.44
16978;BME280;8605;52.548;4.918;2024-02-16T00:14:52;100909.91;;;10.43;94.16
16978;BME280;8605;52.548;4.918;2024-02-16T00:17:20;100910.75;;;10.44;95.01
16978;BME280;8605;52.548;4.918;2024-02-16T00:19:48;100907.56;;;10.40;95.09
16978;BME280;8605;52.548;4.918;2024-02-16T00:22:17;100902.69;;;10.44;94.93
16978;BME280;8605;52.548;4.918;2024-02-16T00:24:45;100901.84;;;10.43;94.04
16978;BME280;8605;52.548;4.918;2024-02-16T00:27:13;100900.19;;;10.43;94.54
16978;BME280;8605;52.548;4.918;2024-02-16T00:29:42;100906.00;;;10.38;95.04
16978;BME280;8605;52.548;4.918;2024-02-16T00:32:10;100905.84;;;10.39;95.23
16978;BME280;8605;52.548;4.918;2024-02-16T00:34:39;100898.78;;;10.38;94.45
16978;BME280;8605;52.548;4.918;2024-02-16T00:37:07;100898.63;;;10.40;94.80
16978;BME280;8605;52.548;4.918;2024-02-16T00:39:39;100894.25;;;10.39;94.25
16978;BME280;8605;52.548;4.918;2024-02-16T00:42:08;100891.25;;;10.42;94.41
16978;BME280;8605;52.548;4.918;2024-02-16T00:44:36;100886.03;;;10.40;94.45
16978;BME280;8605;52.548;4.918;2024-02-16T00:47:04;100886.72;;;10.43;94.16
16978;BME280;8605;52.548;4.918;2024-02-16T00:49:32;100882.19;;;10.43;94.90
16978;BME280;8605;52.548;4.918;2024-02-16T00:52:03;100883.50;;;10.39;94.70
16978;BME280;8605;52.548;4.918;2024-02-16T00:54:32;100893.88;;;10.34;94.84
16978;BME280;8605;52.548;4.918;2024-02-16T00:57:04;100892.50;;;10.30;95.22
16978;BME280;8605;52.548;4.918;2024-02-16T00:59:31;100890.66;;;10.30;95.25
16978;BME280;8605;52.548;4.918;2024-02-16T01:02:00;100853.31;;;10.10;94.43
16978;BME280;8605;52.548;4.918;2024-02-16T01:04:28;100880.72;;;10.31;94.78
16978;BME280;8605;52.548;4.918;2024-02-16T01:06:56;100891.34;;;10.32;95.17
16978;BME280;8605;52.548;4.918;2024-02-16T01:09:24;100877.44;;;10.37;94.05
16978;BME280;8605;52.548;4.918;2024-02-16T01:11:53;100897.56;;;10.33;94.48
16978;BME280;8605;52.548;4.918;2024-02-16T01:14:22;100891.03;;;10.35;94.87
16978;BME280;8605;52.548;4.918;2024-02-16T01:16:50;100870.81;;;10.31;94.77
16978;BME280;8605;52.548;4.918;2024-02-16T01:19:18;100880.13;;;10.37;94.41
16978;BME280;8605;52.548;4.918;2024-02-16T01:21:46;100874.19;;;10.33;94.69
16978;BME280;8605;52.548;4.918;2024-02-16T01:24:18;100875.34;;;10.31;94.90
16978;BME280;8605;52.548;4.918;2024-02-16T01:26:46;100880.28;;;10.35;94.62
16978;BME280;8605;52.548;4.918;2024-02-16T01:29:14;100869.16;;;10.30;95.27
16978;BME280;8605;52.548;4.918;2024-02-16T01:31:43;100879.59;;;10.33;94.71
16978;BME280;8605;52.548;4.918;2024-02-16T01:34:11;100877.59;;;10.35;94.84
16978;BME280;8605;52.548;4.918;2024-02-16T01:36:39;100877.03;;;10.32;95.15
16978;BME280;8605;52.548;4.918;2024-02-16T01:39:07;100879.44;;;10.35;95.16
16978;BME280;8605;52.548;4.918;2024-02-16T01:41:38;100879.72;;;10.32;95.10
16978;BME280;8605;52.548;4.918;2024-02-16T01:44:06;100877.03;;;10.32;94.98
16978;BME280;8605;52.548;4.918;2024-02-16T01:46:35;100873.84;;;10.28;95.40
16978;BME280;8605;52.548;4.918;2024-02-16T01:49:04;100876.25;;;10.39;94.35
16978;BME280;8605;52.548;4.918;2024-02-16T01:51:32;100876.19;;;10.31;94.58
16978;BME280;8605;52.548;4.918;2024-02-16T01:54:01;100869.66;;;10.34;94.52
16978;BME280;8605;52.548;4.918;2024-02-16T01:56:29;100864.28;;;10.34;95.26
16978;BME280;8605;52.548;4.918;2024-02-16T01:58:57;100856.50;;;10.31;95.54
16978;BME280;8605;52.548;4.918;2024-02-16T02:01:25;100845.09;;;10.29;95.44
16978;BME280;8605;52.548;4.918;2024-02-16T02:03:53;100836.53;;;10.33;94.19
16978;BME280;8605;52.548;4.918;2024-02-16T02:06:22;100831.16;;;10.33;94.91
16978;BME280;8605;52.548;4.918;2024-02-16T02:08:50;100819.56;;;10.33;94.54
16978;BME280;8605;52.548;4.918;2024-02-16T02:11:18;100819.91;;;10.30;95.27
16978;BME280;8605;52.548;4.918;2024-02-16T02:13:46;100831.66;;;10.29;95.32
16978;BME280;8605;52.548;4.918;2024-02-16T02:16:15;100831.28;;;10.24;95.27
16978;BME280;8605;52.548;4.918;2024-02-16T02:18:44;100836.09;;;10.20;94.97
16978;BME280;8605;52.548;4.918;2024-02-16T02:21:12;100838.94;;;10.19;94.93
16978;BME280;8605;52.548;4.918;2024-02-16T02:23:42;100840.22;;;10.15;94.70
16978;BME280;8605;52.548;4.918;2024-02-16T02:26:10;100843.66;;;10.17;95.59
16978;BME280;8605;52.548;4.918;2024-02-16T02:28:37;100848.00;;;10.18;94.73
16978;BME280;8605;52.548;4.918;2024-02-16T02:31:05;100839.13;;;10.17;95.33
16978;BME280;8605;52.548;4.918;2024-02-16T02:33:35;100842.78;;;10.16;94.99
16978;BME280;8605;52.548;4.918;2024-02-16T02:36:04;100838.88;;;10.11;95.10
16978;BME280;8605;52.548;4.918;2024-02-16T02:38:32;100838.09;;;10.18;95.02
16978;BME280;8605;52.548;4.918;2024-02-16T02:41:01;100833.56;;;10.19;94.27
16978;BME280;8605;52.548;4.918;2024-02-16T02:43:33;100827.78;;;10.14;95.36
16978;BME280;8605;52.548;4.918;2024-02-16T02:46:01;100820.03;;;10.11;95.39
16978;BME280;8605;52.548;4.918;2024-02-16T02:48:29;100816.19;;;10.13;94.82
16978;BME280;8605;52.548;4.918;2024-02-16T02:50:57;100815.81;;;10.08;94.87
16978;BME280;8605;52.548;4.918;2024-02-16T02:53:28;100815.47;;;10.11;94.70
16978;BME280;8605;52.548;4.918;2024-02-16T02:55:56;100821.19;;;10.08;95.36
16978;BME280;8605;52.548;4.918;2024-02-16T02:58:25;100822.19;;;10.07;94.63
16978;BME280;8605;52.548;4.918;2024-02-16T03:00:52;100821.34;;;10.07;94.74
16978;BME280;8605;52.548;4.918;2024-02-16T03:03:21;100829.53;;;10.05;95.15
16978;BME280;8605;52.548;4.918;2024-02-16T03:05:50;100815.34;;;9.95;94.97
16978;BME280;8605;52.548;4.918;2024-02-16T03:08:17;100825.81;;;9.98;95.71
16978;BME280;8605;52.548;4.918;2024-02-16T03:10:46;100822.28;;;9.97;95.45
16978;BME280;8605;52.548;4.918;2024-02-16T03:13:14;100808.84;;;9.97;94.84
16978;BME280;8605;52.548;4.918;2024-02-16T03:15:46;100823.34;;;10.05;95.21
16978;BME280;8605;52.548;4.918;2024-02-16T03:18:13;100814.97;;;10.08;94.76
16978;BME280;8605;52.548;4.918;2024-02-16T03:20:41;100819.63;;;10.06;94.36
16978;BME280;8605;52.548;4.918;2024-02-16T03:23:12;100818.28;;;10.01;94.49
16978;BME280;8605;52.548;4.918;2024-02-16T03:25:40;100812.41;;;10.06;95.35
16978;BME280;8605;52.548;4.918;2024-02-16T03:28:10;100801.84;;;10.05;95.13
16978;BME280;8605;52.548;4.918;2024-02-16T03:30:39;100800.16;;;10.03;95.09
16978;BME280;8605;52.548;4.918;2024-02-16T03:33:08;100804.69;;;10.03;94.98
16978;BME280;8605;52.548;4.918;2024-02-16T03:35:37;100806.53;;;10.02;94.91
16978;BME280;8605;52.548;4.918;2024-02-16T03:38:04;100792.09;;;10.03;94.45
16978;BME280;8605;52.548;4.918;2024-02-16T03:40:32;100791.53;;;10.00;95.23
16978;BME280;8605;52.548;4.918;2024-02-16T03:43:00;100794.78;;;10.03;94.69
16978;BME280;8605;52.548;4.918;2024-02-16T03:45:28;100799.16;;;10.05;95.10
16978;BME280;8605;52.548;4.918;2024-02-16T03:47:56;100793.38;;;9.99;94.58
16978;BME280;8605;52.548;4.918;2024-02-16T03:50:25;100802.38;;;10.08;94.16
16978;BME280;8605;52.548;4.918;2024-02-16T03:52:53;100794.44;;;10.07;94.85
16978;BME280;8605;52.548;4.918;2024-02-16T03:55:21;100791.09;;;10.05;95.09
16978;BME280;8605;52.548;4.918;2024-02-16T03:57:49;100798.13;;;10.06;93.99
16978;BME280;8605;52.548;4.918;2024-02-16T04:00:17;100785.78;;;9.95;94.76
16978;BME280;8605;52.548;4.918;2024-02-16T04:02:47;100808.00;;;9.97;95.44
16978;BME280;8605;52.548;4.918;2024-02-16T04:05:15;100792.00;;;9.95;95.51
16978;BME280;8605;52.548;4.918;2024-02-16T04:07:44;100785.94;;;9.93;95.15
16978;BME280;8605;52.548;4.918;2024-02-16T04:10:14;100787.97;;;9.91;94.41
16978;BME280;8605;52.548;4.918;2024-02-16T04:12:41;100796.06;;;9.99;94.23
16978;BME280;8605;52.548;4.918;2024-02-16T04:15:09;100799.59;;;10.00;94.87
16978;BME280;8605;52.548;4.918;2024-02-16T04:17:37;100796.91;;;10.00;94.79
16978;BME280;8605;52.548;4.918;2024-02-16T04:20:06;100790.53;;;10.01;94.70
16978;BME280;8605;52.548;4.918;2024-02-16T04:22:33;100791.69;;;9.98;94.67
16978;BME280;8605;52.548;4.918;2024-02-16T04:25:06;100788.84;;;10.00;94.66
16978;BME280;8605;52.548;4.918;2024-02-16T04:27:35;100780.78;;;10.00;94.44
16978;BME280;8605;52.548;4.918;2024-02-16T04:30:04;100780.00;;;10.08;93.35
16978;BME280;8605;52.548;4.918;2024-02-16T04:32:32;100774.97;;;10.05;94.31
16978;BME280;8605;52.548;4.918;2024-02-16T04:35:00;100771.19;;;9.97;94.50
16978;BME280;8605;52.548;4.918;2024-02-16T04:37:28;100772.72;;;10.00;94.21
16978;BME280;8605;52.548;4.918;2024-02-16T04:39:56;100767.50;;;9.98;94.77
16978;BME280;8605;52.548;4.918;2024-02-16T04:42:25;100774.03;;;9.96;94.41
16978;BME280;8605;52.548;4.918;2024-02-16T04:44:53;100779.56;;;9.94;95.36
16978;BME280;8605;52.548;4.918;2024-02-16T04:47:21;100785.94;;;9.93;94.86
16978;BME280;8605;52.548;4.918;2024-02-16T04:49:49;100784.41;;;9.91;95.80
16978;BME280;8605;52.548;4.918;2024-02-16T04:52:16;100794.91;;;10.02;95.19
16978;BME280;8605;52.548;4.918;2024-02-16T04:54:44;100788.19;;;9.98;94.43
16978;BME280;8605;52.548;4.918;2024-02-16T04:57:12;100791.16;;;9.95;95.16
16978;BME280;8605;52.548;4.918;2024-02-16T04:59:41;100787.47;;;9.96;95.65
16978;BME280;8605;52.548;4.918;2024-02-16T05:02:08;100797.06;;;9.98;94.93
16978;BME280;8605;52.548;4.918;2024-02-16T05:04:36;100788.22;;;10.06;93.73
16978;BME280;8605;52.548;4.918;2024-02-16T05:07:04;100781.63;;;10.00;94.61
16978;BME280;8605;52.548;4.918;2024-02-16T05:09:32;100781.25;;;9.95;94.22
16978;BME280;8605;52.548;4.918;2024-02-16T05:12:00;100770.81;;;9.92;94.18
16978;BME280;8605;52.548;4.918;2024-02-16T05:14:29;100774.53;;;9.91;94.07
16978;BME280;8605;52.548;4.918;2024-02-16T05:16:58;100777.34;;;9.90;94.09
16978;BME280;8605;52.548;4.918;2024-02-16T05:19:25;100778.63;;;9.86;95.12
16978;BME280;8605;52.548;4.918;2024-02-16T05:21:53;100780.94;;;9.81;95.05
16978;BME280;8605;52.548;4.918;2024-02-16T05:24:22;100775.72;;;9.79;95.32
16978;BME280;8605;52.548;4.918;2024-02-16T05:26:49;100787.66;;;9.77;94.88
16978;BME280;8605;52.548;4.918;2024-02-16T05:29:18;100780.56;;;9.76;95.05
16978;BME280;8605;52.548;4.918;2024-02-16T05:31:46;100777.03;;;9.75;95.89
16978;BME280;8605;52.548;4.918;2024-02-16T05:34:15;100781.28;;;9.78;94.43
16978;BME280;8605;52.548;4.918;2024-02-16T05:36:43;100790.19;;;9.78;94.20
16978;BME280;8605;52.548;4.918;2024-02-16T05:39:36;100782.41;;;9.75;94.54
16978;BME280;8605;52.548;4.918;2024-02-16T05:42:20;100785.56;;;9.71;95.37
16978;BME280;8605;52.548;4.918;2024-02-16T05:44:49;100772.53;;;9.58;95.25
16978;BME280;8605;52.548;4.918;2024-02-16T05:47:17;100787.56;;;9.69;95.81
16978;BME280;8605;52.548;4.918;2024-02-16T05:49:47;100784.03;;;9.68;95.44
16978;BME280;8605;52.548;4.918;2024-02-16T05:52:15;100789.78;;;9.73;94.92
16978;BME280;8605;52.548;4.918;2024-02-16T05:54:48;100797.84;;;9.73;95.41
16978;BME280;8605;52.548;4.918;2024-02-16T05:57:16;100793.50;;;9.72;95.69
16978;BME280;8605;52.548;4.918;2024-02-16T05:59:48;100794.78;;;9.68;94.67
16978;BME280;8605;52.548;4.918;2024-02-16T06:02:18;100799.38;;;9.76;94.71
16978;BME280;8605;52.548;4.918;2024-02-16T06:04:47;100801.22;;;9.75;94.85
16978;BME280;8605;52.548;4.918;2024-02-16T06:07:16;100803.22;;;9.73;95.70
16978;BME280;8605;52.548;4.918;2024-02-16T06:09:44;100796.31;;;9.71;94.94
16978;BME280;8605;52.548;4.918;2024-02-16T06:12:12;100809.91;;;9.69;94.87
16978;BME280;8605;52.548;4.918;2024-02-16T06:14:42;100815.00;;;9.72;95.64
16978;BME280;8605;52.548;4.918;2024-02-16T06:17:10;100812.31;;;9.72;94.93
16978;BME280;8605;52.548;4.918;2024-02-16T06:19:37;100816.66;;;9.73;95.17
16978;BME280;8605;52.548;4.918;2024-02-16T06:22:08;100811.88;;;9.67;95.55
16978;BME280;8605;52.548;4.918;2024-02-16T06:24:36;100811.84;;;9.77;95.04
16978;BME280;8605;52.548;4.918;2024-02-16T06:27:04;100820.03;;;9.75;95.37
16978;BME280;8605;52.548;4.918;2024-02-16T06:29:32;100817.06;;;9.78;95.11
16978;BME280;8605;52.548;4.918;2024-02-16T06:32:02;100819.75;;;9.78;94.85
16978;BME280;8605;52.548;4.918;2024-02-16T06:34:30;100827.81;;;9.78;94.38
16978;BME280;8605;52.548;4.918;2024-02-16T06:36:59;100811.69;;;9.78;94.70
16978;BME280;8605;52.548;4.918;2024-02-16T06:39:28;100820.41;;;9.80;95.27
16978;BME280;8605;52.548;4.918;2024-02-16T06:41:57;100825.50;;;9.83;94.56
16978;BME280;8605;52.548;4.918;2024-02-16T06:44:26;100825.72;;;9.90;94.64
16978;BME280;8605;52.548;4.918;2024-02-16T06:46:54;100836.09;;;9.85;95.12
16978;BME280;8605;52.548;4.918;2024-02-16T06:49:22;100836.09;;;9.85;95.12
16978;BME280;8605;52.548;4.918;2024-02-16T06:51:50;100839.78;;;9.84;95.32
16978;BME280;8605;52.548;4.918;2024-02-16T06:54:18;100839.59;;;9.85;95.09
16978;BME280;8605;52.548;4.918;2024-02-16T06:56:47;100832.25;;;9.87;94.93
16978;BME280;8605;52.548;4.918;2024-02-16T06:59:14;100835.94;;;9.86;94.97
16978;BME280;8605;52.548;4.918;2024-02-16T07:01:42;100842.00;;;9.88;95.47
16978;BME280;8605;52.548;4.918;2024-02-16T07:04:10;100841.00;;;9.89;94.88
16978;BME280;8605;52.548;4.918;2024-02-16T07:06:38;100842.84;;;9.89;95.46
16978;BME280;8605;52.548;4.918;2024-02-16T07:09:06;100851.75;;;9.89;95.53
16978;BME280;8605;52.548;4.918;2024-02-16T07:11:34;100848.53;;;9.86;96.06
16978;BME280;8605;52.548;4.918;2024-02-16T07:14:03;100852.06;;;9.86;95.24
16978;BME280;8605;52.548;4.918;2024-02-16T07:16:34;100861.81;;;9.87;95.63
16978;BME280;8605;52.548;4.918;2024-02-16T07:19:03;100863.50;;;9.88;94.78
16978;BME280;8605;52.548;4.918;2024-02-16T07:21:32;100865.19;;;9.89;95.65
16978;BME280;8605;52.548;4.918;2024-02-16T07:24:00;100868.28;;;9.94;94.77
16978;BME280;8605;52.548;4.918;2024-02-16T07:26:28;100860.53;;;9.91;95.31
16978;BME280;8605;52.548;4.918;2024-02-16T07:28:56;100861.19;;;9.93;95.30
16978;BME280;8605;52.548;4.918;2024-02-16T07:31:25;100860.91;;;9.96;95.26
16978;BME280;8605;52.548;4.918;2024-02-16T07:33:52;100872.31;;;9.98;95.31
16978;BME280;8605;52.548;4.918;2024-02-16T07:36:20;100871.13;;;10.11;95.28
16978;BME280;8605;52.548;4.918;2024-02-16T07:38:48;100879.47;;;10.08;94.98
16978;BME280;8605;52.548;4.918;2024-02-16T07:41:16;100850.38;;;10.03;94.59
16978;BME280;8605;52.548;4.918;2024-02-16T07:43:44;100888.63;;;10.15;95.08
16978;BME280;8605;52.548;4.918;2024-02-16T07:46:14;100878.97;;;10.22;94.48
16978;BME280;8605;52.548;4.918;2024-02-16T07:48:43;100886.56;;;10.26;94.02
16978;BME280;8605;52.548;4.918;2024-02-16T07:51:11;100899.56;;;10.31;94.32
16978;BME280;8605;52.548;4.918;2024-02-16T07:53:39;100908.41;;;10.23;94.18
16978;BME280;8605;52.548;4.918;2024-02-16T07:56:08;100906.25;;;10.27;94.41
16978;BME280;8605;52.548;4.918;2024-02-16T07:58:36;100900.56;;;10.30;94.76
16978;BME280;8605;52.548;4.918;2024-02-16T08:01:04;100909.03;;;10.35;94.61
16978;BME280;8605;52.548;4.918;2024-02-16T08:03:32;100914.91;;;10.38;94.17
16978;BME280;8605;52.548;4.918;2024-02-16T08:06:03;100922.22;;;10.46;94.63
16978;BME280;8605;52.548;4.918;2024-02-16T08:08:31;100920.69;;;10.43;94.31
16978;BME280;8605;52.548;4.918;2024-02-16T08:10:59;100921.94;;;10.49;94.44
16978;BME280;8605;52.548;4.918;2024-02-16T08:13:27;100933.97;;;10.45;95.05
16978;BME280;8605;52.548;4.918;2024-02-16T08:15:55;100944.44;;;10.48;94.51
16978;BME280;8605;52.548;4.918;2024-02-16T08:18:23;100940.81;;;10.57;94.08
16978;BME280;8605;52.548;4.918;2024-02-16T08:20:51;100942.84;;;10.55;95.14
16978;BME280;8605;52.548;4.918;2024-02-16T08:23:20;100955.59;;;10.53;94.64
16978;BME280;8605;52.548;4.918;2024-02-16T08:25:48;100959.50;;;10.59;94.59
16978;BME280;8605;52.548;4.918;2024-02-16T08:28:16;100967.72;;;10.57;94.75
16978;BME280;8605;52.548;4.918;2024-02-16T08:30:44;100960.50;;;10.58;94.74
16978;BME280;8605;52.548;4.918;2024-02-16T08:33:12;100965.81;;;10.67;94.58
16978;BME280;8605;52.548;4.918;2024-02-16T08:35:40;100957.41;;;10.70;95.13
16978;BME280;8605;52.548;4.918;2024-02-16T08:38:08;100974.78;;;10.76;95.09
16978;BME280;8605;52.548;4.918;2024-02-16T08:40:40;100979.38;;;10.83;94.54
16978;BME280;8605;52.548;4.918;2024-02-16T08:43:08;100975.63;;;10.94;94.55
16978;BME280;8605;52.548;4.918;2024-02-16T08:45:35;100978.88;;;11.06;94.49
16978;BME280;8605;52.548;4.918;2024-02-16T08:48:04;100977.34;;;11.03;95.16
16978;BME280;8605;52.548;4.918;2024-02-16T08:50:32;100973.13;;;11.01;95.11
16978;BME280;8605;52.548;4.918;2024-02-16T08:53:02;100954.38;;;10.91;94.74
16978;BME280;8605;52.548;4.918;2024-02-16T08:55:30;100986.97;;;11.06;94.58
16978;BME280;8605;52.548;4.918;2024-02-16T08:58:00;100995.34;;;11.03;94.82
16978;BME280;8605;52.548;4.918;2024-02-16T09:00:28;100997.19;;;11.02;95.27
16978;BME280;8605;52.548;4.918;2024-02-16T09:02:56;101001.06;;;11.00;95.13
16978;BME280;8605;52.548;4.918;2024-02-16T09:05:24;101008.81;;;11.03;95.20
16978;BME280;8605;52.548;4.918;2024-02-16T09:07:52;101009.28;;;10.98;95.42
16978;BME280;8605;52.548;4.918;2024-02-16T09:10:20;101002.53;;;10.94;95.59
16978;BME280;8605;52.548;4.918;2024-02-16T09:12:48;101012.75;;;10.91;95.64
16978;BME280;8605;52.548;4.918;2024-02-16T09:15:19;101017.91;;;10.84;95.20
16978;BME280;8605;52.548;4.918;2024-02-16T09:17:47;101023.63;;;10.81;95.92
16978;BME280;8605;52.548;4.918;2024-02-16T09:20:14;101027.59;;;10.77;95.49
16978;BME280;8605;52.548;4.918;2024-02-16T09:22:48;101035.16;;;10.73;95.60
16978;BME280;8605;52.548;4.918;2024-02-16T09:25:16;101043.53;;;10.70;95.91
16978;BME280;8605;52.548;4.918;2024-02-16T09:27:46;101047.38;;;10.68;96.29
16978;BME280;8605;52.548;4.918;2024-02-16T09:30:15;101059.28;;;10.65;96.50
16978;BME280;8605;52.548;4.918;2024-02-16T09:32:48;101060.47;;;10.63;96.87
16978;BME280;8605;52.548;4.918;2024-02-16T09:35:16;101078.22;;;10.56;97.57
16978;BME280;8605;52.548;4.918;2024-02-16T09:37:44;101082.75;;;10.55;97.91
16978;BME280;8605;52.548;4.918;2024-02-16T09:40:12;101079.34;;;10.53;98.27
16978;BME280;8605;52.548;4.918;2024-02-16T09:42:40;101090.25;;;10.52;98.36
16978;BME280;8605;52.548;4.918;2024-02-16T09:45:09;101080.56;;;10.41;98.19
16978;BME280;8605;52.548;4.918;2024-02-16T09:47:38;101089.63;;;10.40;98.57
16978;BME280;8605;52.548;4.918;2024-02-16T09:50:15;101100.78;;;10.45;98.30
16978;BME280;8605;52.548;4.918;2024-02-16T09:52:48;101112.69;;;10.43;98.56
16978;BME280;8605;52.548;4.918;2024-02-16T09:55:17;101118.22;;;10.41;99.51
16978;BME280;8605;52.548;4.918;2024-02-16T09:57:58;101114.16;;;10.37;99.22
16978;BME280;8605;52.548;4.918;2024-02-16T10:00:26;101119.53;;;10.37;99.70
16978;BME280;8605;52.548;4.918;2024-02-16T10:02:54;101128.88;;;10.33;99.61
16978;BME280;8605;52.548;4.918;2024-02-16T10:05:23;101135.56;;;10.29;100.00
16978;BME280;8605;52.548;4.918;2024-02-16T10:07:52;101139.25;;;10.28;99.84
16978;BME280;8605;52.548;4.918;2024-02-16T10:10:20;101139.09;;;10.29;99.98
16978;BME280;8605;52.548;4.918;2024-02-16T10:12:49;101155.53;;;10.26;100.00
16978;BME280;8605;52.548;4.918;2024-02-16T10:15:21;101150.59;;;10.22;100.00
16978;BME280;8605;52.548;4.918;2024-02-16T10:18:07;101163.34;;;10.20;100.00
16978;BME280;8605;52.548;4.918;2024-02-16T10:20:38;101159.94;;;10.18;100.00
16978;BME280;8605;52.548;4.918;2024-02-16T10:23:06;101160.78;;;10.18;100.00
16978;BME280;8605;52.548;4.918;2024-02-16T10:25:35;101158.09;;;10.18;100.00
16978;BME280;8605;52.548;4.918;2024-02-16T10:28:05;101163.66;;;10.17;100.00
16978;BME280;8605;52.548;4.918;2024-02-16T10:30:35;101175.09;;;10.19;99.76
16978;BME280;8605;52.548;4.918;2024-02-16T10:33:06;101190.22;;;10.20;99.82
16978;BME280;8605;52.548;4.918;2024-02-16T10:35:34;101187.69;;;10.09;100.00
16978;BME280;8605;52.548;4.918;2024-02-16T10:38:05;101229.72;;;10.19;100.00
16978;BME280;8605;52.548;4.918;2024-02-16T10:40:38;101236.94;;;10.19;100.00
16978;BME280;8605;52.548;4.918;2024-02-16T10:43:09;101251.09;;;10.21;100.00
16978;BME280;8605;52.548;4.918;2024-02-16T10:45:38;101252.38;;;10.17;100.00
16978;BME280;8605;52.548;4.918;2024-02-16T10:48:07;101260.47;;;10.17;100.00
16978;BME280;8605;52.548;4.918;2024-02-16T10:50:36;101251.06;;;10.11;100.00
16978;BME280;8605;52.548;4.918;2024-02-16T10:53:09;101244.03;;;10.00;100.00
16978;BME280;8605;52.548;4.918;2024-02-16T10:55:39;101261.72;;;10.03;100.00
16978;BME280;8605;52.548;4.918;2024-02-16T10:58:08;101253.38;;;9.96;100.00
16978;BME280;8605;52.548;4.918;2024-02-16T11:00:36;101259.31;;;10.00;100.00
16978;BME280;8605;52.548;4.918;2024-02-16T11:03:07;101253.78;;;10.01;100.00
16978;BME280;8605;52.548;4.918;2024-02-16T11:05:35;101244.75;;;10.02;100.00
16978;BME280;8605;52.548;4.918;2024-02-16T11:08:04;101247.44;;;10.02;100.00
16978;BME280;8605;52.548;4.918;2024-02-16T11:10:34;101250.66;;;10.06;100.00
16978;BME280;8605;52.548;4.918;2024-02-16T11:13:06;101254.91;;;10.09;100.00
16978;BME280;8605;52.548;4.918;2024-02-16T11:15:37;101253.75;;;10.11;100.00
16978;BME280;8605;52.548;4.918;2024-02-16T11:18:05;101279.81;;;10.11;100.00
16978;BME280;8605;52.548;4.918;2024-02-16T11:20:37;101282.06;;;10.06;100.00
16978;BME280;8605;52.548;4.918;2024-02-16T11:23:06;101290.84;;;10.08;100.00
16978;BME280;8605;52.548;4.918;2024-02-16T11:25:37;101305.16;;;10.08;100.00
16978;BME280;8605;52.548;4.918;2024-02-16T11:28:05;101312.81;;;10.03;100.00
16978;BME280;8605;52.548;4.918;2024-02-16T11:30:36;101321.56;;;10.05;100.00
16978;BME280;8605;52.548;4.918;2024-02-16T11:33:04;101321.28;;;9.98;100.00
16978;BME280;8605;52.548;4.918;2024-02-16T11:35:32;101311.66;;;10.06;100.00
16978;BME280;8605;52.548;4.918;2024-02-16T11:38:01;101332.88;;;10.09;100.00
16978;BME280;8605;52.548;4.918;2024-02-16T11:40:29;101327.06;;;10.13;100.00
16978;BME280;8605;52.548;4.918;2024-02-16T11:42:59;101321.81;;;10.12;100.00
16978;BME280;8605;52.548;4.918;2024-02-16T11:45:27;101334.44;;;10.11;100.00
16978;BME280;8605;52.548;4.918;2024-02-16T11:48:06;101342.50;;;10.11;100.00
16978;BME280;8605;52.548;4.918;2024-02-16T11:50:34;101342.34;;;10.13;100.00
16978;BME280;8605;52.548;4.918;2024-02-16T11:53:02;101333.16;;;10.15;100.00
16978;BME280;8605;52.548;4.918;2024-02-16T11:55:31;101347.19;;;10.19;100.00
16978;BME280;8605;52.548;4.918;2024-02-16T11:58:04;101347.63;;;10.24;100.00
16978;BME280;8605;52.548;4.918;2024-02-16T12:00:32;101346.63;;;10.25;100.00
16978;BME280;8605;52.548;4.918;2024-02-16T12:03:03;101353.44;;;10.29;100.00
16978;BME280;8605;52.548;4.918;2024-02-16T12:05:31;101353.00;;;10.33;100.00
16978;BME280;8605;52.548;4.918;2024-02-16T12:08:01;101354.38;;;10.37;100.00
16978;BME280;8605;52.548;4.918;2024-02-16T12:10:29;101361.47;;;10.38;100.00
16978;BME280;8605;52.548;4.918;2024-02-16T12:12:57;101377.63;;;10.38;100.00
16978;BME280;8605;52.548;4.918;2024-02-16T12:15:32;101384.44;;;10.43;100.00
16978;BME280;8605;52.548;4.918;2024-02-16T12:18:02;101386.94;;;10.44;100.00
16978;BME280;8605;52.548;4.918;2024-02-16T12:20:30;101389.50;;;10.46;100.00
16978;BME280;8605;52.548;4.918;2024-02-16T12:23:10;101395.47;;;10.39;100.00
16978;BME280;8605;52.548;4.918;2024-02-16T12:25:38;101403.66;;;10.38;100.00
16978;BME280;8605;52.548;4.918;2024-02-16T12:28:06;101400.84;;;10.39;100.00
16978;BME280;8605;52.548;4.918;2024-02-16T12:30:35;101409.34;;;10.35;100.00
16978;BME280;8605;52.548;4.918;2024-02-16T12:33:04;101415.28;;;10.38;100.00
16978;BME280;8605;52.548;4.918;2024-02-16T12:35:32;101424.19;;;10.39;100.00
16978;BME280;8605;52.548;4.918;2024-02-16T12:38:01;101429.88;;;10.36;100.00
16978;BME280;8605;52.548;4.918;2024-02-16T12:40:29;101443.34;;;10.36;100.00
16978;BME280;8605;52.548;4.918;2024-02-16T12:43:04;101440.19;;;10.31;100.00
16978;BME280;8605;52.548;4.918;2024-02-16T12:45:37;101447.28;;;10.32;100.00
16978;BME280;8605;52.548;4.918;2024-02-16T12:48:05;101442.63;;;10.34;100.00
16978;BME280;8605;52.548;4.918;2024-02-16T12:50:34;101431.44;;;10.29;100.00
16978;BME280;8605;52.548;4.918;2024-02-16T12:53:06;101460.75;;;10.41;100.00
16978;BME280;8605;52.548;4.918;2024-02-16T12:55:34;101451.41;;;10.36;100.00
16978;BME280;8605;52.548;4.918;2024-02-16T12:58:02;101467.66;;;10.44;100.00
16978;BME280;8605;52.548;4.918;2024-02-16T13:00:30;101461.59;;;10.42;100.00
16978;BME280;8605;52.548;4.918;2024-02-16T13:03:01;101461.28;;;10.45;100.00
16978;BME280;8605;52.548;4.918;2024-02-16T13:05:29;101470.53;;;10.43;100.00
16978;BME280;8605;52.548;4.918;2024-02-16T13:07:59;101474.47;;;10.48;100.00